createdAt,value
2023-04-23T00:01:08.834Z,4.47
2023-04-23T00:03:37.416Z,3.72
2023-04-23T00:06:06.644Z,4.90
2023-04-23T00:08:33.865Z,4.07
2023-04-23T00:11:00.592Z,4.30
2023-04-23T00:13:27.541Z,4.68
2023-04-23T00:15:54.358Z,4.60
2023-04-23T00:18:21.019Z,5.75
2023-04-23T00:20:47.682Z,5.40
2023-04-23T00:23:14.536Z,5.30
2023-04-23T00:25:41.230Z,5.45
2023-04-23T00:28:07.953Z,5.43
2023-04-23T00:30:34.612Z,5.90
2023-04-23T00:33:01.440Z,5.60
2023-04-23T00:35:28.048Z,6.93
2023-04-23T00:37:54.658Z,6.15
2023-04-23T00:40:21.417Z,6.63
2023-04-23T00:42:49.207Z,6.22
2023-04-23T00:45:16.678Z,6.43
2023-04-23T00:47:43.704Z,6.70
2023-04-23T00:50:10.591Z,6.20
2023-04-23T00:52:39.109Z,5.35
2023-04-23T00:55:07.240Z,6.07
2023-04-23T00:57:34.760Z,6.05
2023-04-23T01:00:01.422Z,6.05
2023-04-23T01:02:30.864Z,5.93
2023-04-23T01:04:59.755Z,5.75
2023-04-23T01:07:27.556Z,6.07
2023-04-23T01:09:54.431Z,6.35
2023-04-23T01:12:21.082Z,5.38
2023-04-23T01:14:48.008Z,5.75
2023-04-23T01:17:14.661Z,6.88
2023-04-23T01:19:41.655Z,6.13
2023-04-23T01:22:13.615Z,6.82
2023-04-23T01:24:42.579Z,6.70
2023-04-23T01:27:10.232Z,6.60
2023-04-23T01:29:38.013Z,6.68
2023-04-23T01:32:05.757Z,7.60
2023-04-23T01:34:32.896Z,6.88
2023-04-23T01:37:00.179Z,6.78
2023-04-23T01:39:26.795Z,6.43
2023-04-23T01:41:53.427Z,6.85
2023-04-23T01:44:20.425Z,11.65
2023-04-23T01:46:47.246Z,19.15
2023-04-23T01:49:14.429Z,20.33
2023-04-23T01:51:41.102Z,21.67
2023-04-23T01:54:08.470Z,21.95
2023-04-23T01:56:36.260Z,23.10
2023-04-23T01:59:02.990Z,21.15
2023-04-23T02:01:46.389Z,22.98
2023-04-23T02:04:16.115Z,21.77
2023-04-23T02:06:45.949Z,22.48
2023-04-23T02:09:12.960Z,23.20
2023-04-23T02:11:39.660Z,22.08
2023-04-23T02:14:07.316Z,22.67
2023-04-23T02:16:34.774Z,21.63
2023-04-23T02:19:01.878Z,20.65
2023-04-23T02:21:28.656Z,22.55
2023-04-23T02:23:56.449Z,21.60
2023-04-23T02:26:23.717Z,20.75
2023-04-23T02:28:51.057Z,21.25
2023-04-23T02:31:17.955Z,21.45
2023-04-23T02:33:47.152Z,23.00
2023-04-23T02:36:13.948Z,22.60
2023-04-23T02:38:42.599Z,21.80
2023-04-23T02:41:09.522Z,20.67
2023-04-23T02:43:36.386Z,22.25
2023-04-23T02:46:09.540Z,21.83
2023-04-23T02:48:38.567Z,21.08
2023-04-23T02:51:06.634Z,20.02
2023-04-23T02:53:34.059Z,20.98
2023-04-23T02:56:01.626Z,19.48
2023-04-23T02:58:28.668Z,19.80
2023-04-23T03:00:55.526Z,19.83
2023-04-23T03:03:22.621Z,17.70
2023-04-23T03:05:49.316Z,18.25
2023-04-23T03:08:16.244Z,18.17
2023-04-23T03:10:43.120Z,17.88
2023-04-23T03:13:10.125Z,18.05
2023-04-23T03:15:36.806Z,16.55
2023-04-23T03:18:04.547Z,14.95
2023-04-23T03:20:31.268Z,13.88
2023-04-23T03:22:58.178Z,11.20
2023-04-23T03:25:26.000Z,10.93
2023-04-23T03:27:53.310Z,9.75
2023-04-23T03:30:20.829Z,9.93
2023-04-23T03:32:47.643Z,7.63
2023-04-23T03:35:14.564Z,7.95
2023-04-23T03:37:41.394Z,7.13
2023-04-23T03:40:11.011Z,6.63
2023-04-23T03:42:37.907Z,6.85
2023-04-23T03:45:05.638Z,6.15
2023-04-23T03:47:32.385Z,6.07
2023-04-23T03:49:59.068Z,5.35
2023-04-23T03:52:25.818Z,6.05
2023-04-23T03:54:52.511Z,5.85
2023-04-23T03:57:21.910Z,6.22
2023-04-23T03:59:48.777Z,5.88
2023-04-23T04:02:15.619Z,5.85
2023-04-23T04:04:43.587Z,5.32
2023-04-23T04:07:12.204Z,4.97
2023-04-23T04:09:39.130Z,5.97
2023-04-23T04:12:06.281Z,5.47
2023-04-23T04:14:33.108Z,6.07
2023-04-23T04:17:00.165Z,5.75
2023-04-23T04:19:26.841Z,5.72
2023-04-23T04:21:53.492Z,6.10
2023-04-23T04:24:22.530Z,6.43
2023-04-23T04:26:50.432Z,6.65
2023-04-23T04:29:17.437Z,5.22
2023-04-23T04:31:44.490Z,5.57
2023-04-23T04:34:14.184Z,5.40
2023-04-23T04:36:42.284Z,6.13
2023-04-23T04:39:09.695Z,4.95
2023-04-23T04:41:40.133Z,5.50
2023-04-23T04:44:10.386Z,5.63
2023-04-23T04:46:40.864Z,6.00
2023-04-23T04:49:08.962Z,6.85
2023-04-23T04:51:37.274Z,7.60
2023-04-23T04:54:04.227Z,6.93
2023-04-23T04:56:31.140Z,8.00
2023-04-23T04:58:57.884Z,6.80
2023-04-23T05:01:25.620Z,7.95
2023-04-23T05:03:53.919Z,7.35
2023-04-23T05:06:20.870Z,8.32
2023-04-23T05:08:50.444Z,8.43
2023-04-23T05:11:19.088Z,8.10
2023-04-23T05:13:46.346Z,8.55
2023-04-23T05:16:13.646Z,8.57
2023-04-23T05:18:41.992Z,8.77
2023-04-23T05:21:09.267Z,8.68
2023-04-23T05:23:36.769Z,8.55
2023-04-23T05:26:04.156Z,6.90
2023-04-23T05:28:31.440Z,7.10
2023-04-23T05:30:58.723Z,7.07
2023-04-23T05:33:30.712Z,6.63
2023-04-23T05:36:00.419Z,6.43
2023-04-23T05:38:27.283Z,6.30
2023-04-23T05:40:53.926Z,5.82
2023-04-23T05:43:20.582Z,6.00
2023-04-23T05:45:47.355Z,6.78
2023-04-23T05:48:14.233Z,6.85
2023-04-23T05:50:41.069Z,6.88
2023-04-23T05:53:07.665Z,7.55
2023-04-23T05:55:36.449Z,7.60
2023-04-23T05:58:03.076Z,7.47
2023-04-23T06:00:30.055Z,6.57
2023-04-23T06:02:57.025Z,7.20
2023-04-23T06:05:24.157Z,6.88
2023-04-23T06:07:50.936Z,6.45
2023-04-23T06:10:17.668Z,7.00
2023-04-23T06:12:44.300Z,6.60
2023-04-23T06:15:11.497Z,6.78
2023-04-23T06:17:39.125Z,6.82
2023-04-23T06:20:09.037Z,7.07
2023-04-23T06:22:35.756Z,6.30
2023-04-23T06:25:02.626Z,6.70
2023-04-23T06:27:31.585Z,6.57
2023-04-23T06:29:58.371Z,6.38
2023-04-23T06:32:25.107Z,6.35
2023-04-23T06:35:00.763Z,6.72
2023-04-23T06:37:29.920Z,6.68
2023-04-23T06:39:56.848Z,6.43
2023-04-23T06:42:23.742Z,6.07
2023-04-23T06:44:51.917Z,6.38
2023-04-23T06:47:19.607Z,7.18
2023-04-23T06:49:46.458Z,6.10
2023-04-23T06:52:13.400Z,5.72
2023-04-23T06:54:40.319Z,5.97
2023-04-23T06:57:07.307Z,5.60
2023-04-23T06:59:34.150Z,5.55
2023-04-23T07:02:01.177Z,5.55
2023-04-23T07:04:27.956Z,5.95
2023-04-23T07:06:55.191Z,4.82
2023-04-23T07:09:21.919Z,5.47
2023-04-23T07:11:48.874Z,5.72
2023-04-23T07:14:23.339Z,5.90
2023-04-23T07:16:50.345Z,4.95
2023-04-23T07:19:25.563Z,6.03
2023-04-23T07:21:53.807Z,5.40
2023-04-23T07:24:20.790Z,5.57
2023-04-23T07:26:50.729Z,5.65
2023-04-23T07:29:19.310Z,5.68
2023-04-23T07:31:48.491Z,5.75
2023-04-23T07:34:17.082Z,4.97
2023-04-23T07:36:43.928Z,5.97
2023-04-23T07:39:11.040Z,6.35
2023-04-23T07:41:37.906Z,5.57
2023-04-23T07:44:04.989Z,6.00
2023-04-23T07:46:31.859Z,5.10
2023-04-23T07:48:58.954Z,5.80
2023-04-23T07:51:27.233Z,5.65
2023-04-23T07:53:58.448Z,5.25
2023-04-23T07:56:25.679Z,5.70
2023-04-23T07:58:54.235Z,5.43
2023-04-23T08:01:21.764Z,5.45
2023-04-23T08:03:49.777Z,6.65
2023-04-23T08:06:18.302Z,6.13
2023-04-23T08:08:45.267Z,5.72
2023-04-23T08:11:12.120Z,6.07
2023-04-23T08:13:38.784Z,5.32
2023-04-23T08:16:05.928Z,5.45
2023-04-23T08:18:32.757Z,6.13
2023-04-23T08:21:01.637Z,6.13
2023-04-23T08:23:28.505Z,5.88
2023-04-23T08:25:55.846Z,5.95
2023-04-23T08:28:23.856Z,6.03
2023-04-23T08:30:50.718Z,5.63
2023-04-23T08:33:17.415Z,5.70
2023-04-23T08:35:45.500Z,5.78
2023-04-23T08:38:12.093Z,5.20
2023-04-23T08:40:40.291Z,5.32
2023-04-23T08:43:16.500Z,5.22
2023-04-23T08:45:48.971Z,5.03
2023-04-23T08:48:15.892Z,4.45
2023-04-23T08:50:46.469Z,5.18
2023-04-23T08:53:19.110Z,5.07
2023-04-23T08:55:48.570Z,4.68
2023-04-23T08:58:17.173Z,5.40
2023-04-23T09:00:44.384Z,5.07
2023-04-23T09:03:12.192Z,5.47
2023-04-23T09:05:39.891Z,4.60
2023-04-23T09:08:10.189Z,5.40
2023-04-23T09:10:44.530Z,4.85
2023-04-23T09:13:13.017Z,5.65
2023-04-23T09:15:45.598Z,4.70
2023-04-23T09:18:12.387Z,5.43
2023-04-23T09:20:39.000Z,5.25
2023-04-23T09:23:09.045Z,4.68
2023-04-23T09:25:36.602Z,5.70
2023-04-23T09:28:12.556Z,5.60
2023-04-23T09:30:43.077Z,5.15
2023-04-23T09:33:12.646Z,4.82
2023-04-23T09:35:40.735Z,4.85
2023-04-23T09:38:08.036Z,5.10
2023-04-23T09:40:35.280Z,5.75
2023-04-23T09:43:04.531Z,5.20
2023-04-23T09:45:32.718Z,5.43
2023-04-23T09:48:01.749Z,5.65
2023-04-23T09:50:35.469Z,5.68
2023-04-23T09:53:02.517Z,5.28
2023-04-23T09:55:35.398Z,5.47
2023-04-23T09:58:06.311Z,6.30
2023-04-23T10:00:39.014Z,5.50
2023-04-23T10:03:07.958Z,5.70
2023-04-23T10:05:59.731Z,6.05
2023-04-23T10:08:29.524Z,6.07
2023-04-23T10:11:06.666Z,6.38
2023-04-23T10:13:44.578Z,5.68
2023-04-23T10:16:21.200Z,5.93
2023-04-23T10:18:51.046Z,6.05
2023-04-23T10:21:20.360Z,6.78
2023-04-23T10:23:49.968Z,6.07
2023-04-23T10:26:19.092Z,5.80
2023-04-23T10:28:48.989Z,6.28
2023-04-23T10:31:16.574Z,6.65
2023-04-23T10:33:58.407Z,6.38
2023-04-23T10:36:27.474Z,5.55
2023-04-23T10:38:58.376Z,5.80
2023-04-23T10:41:32.224Z,6.63
2023-04-23T10:44:00.672Z,6.32
2023-04-23T10:46:31.464Z,6.10
2023-04-23T10:49:16.628Z,5.70
2023-04-23T10:54:19.574Z,6.22
2023-04-23T10:56:46.195Z,5.97
2023-04-23T10:59:20.853Z,5.80
2023-04-23T11:01:51.150Z,6.07
2023-04-23T11:04:27.276Z,5.80
2023-04-23T11:06:57.803Z,5.55
2023-04-23T11:09:59.203Z,5.95
2023-04-23T11:12:29.812Z,5.90
2023-04-23T11:14:57.174Z,6.03
2023-04-23T11:17:33.064Z,6.00
2023-04-23T11:20:20.172Z,6.55
2023-04-23T11:22:49.081Z,6.75
2023-04-23T11:25:19.577Z,7.10
2023-04-23T11:27:47.267Z,6.88
2023-04-23T11:30:34.216Z,6.32
2023-04-23T11:33:01.947Z,7.07
2023-04-23T11:35:30.357Z,6.15
2023-04-23T11:37:57.104Z,6.70
2023-04-23T11:40:24.217Z,6.88
2023-04-23T11:42:54.530Z,7.00
2023-04-23T11:45:22.549Z,6.65
2023-04-23T11:47:53.301Z,7.00
2023-04-23T11:50:20.738Z,6.97
2023-04-23T11:52:47.865Z,7.43
2023-04-23T11:55:14.635Z,6.30
2023-04-23T11:57:43.126Z,6.10
2023-04-23T12:00:21.352Z,7.00
2023-04-23T12:03:02.468Z,6.57
2023-04-23T12:05:35.166Z,6.93
2023-04-23T12:08:14.712Z,5.53
2023-04-23T12:11:00.116Z,5.65
2023-04-23T12:13:33.632Z,4.80
2023-04-23T12:16:03.996Z,5.18
2023-04-23T12:18:40.318Z,6.03
2023-04-23T12:21:13.425Z,5.53
2023-04-23T12:23:46.219Z,4.97
2023-04-23T12:26:15.795Z,5.38
2023-04-23T12:28:52.922Z,4.28
2023-04-23T12:31:24.485Z,4.45
2023-04-23T12:34:17.621Z,4.25
2023-04-23T12:36:55.174Z,5.10
2023-04-23T12:39:23.318Z,4.57
2023-04-23T12:42:04.623Z,4.50
2023-04-23T12:44:34.394Z,5.55
2023-04-23T12:47:04.780Z,4.50
2023-04-23T12:49:34.315Z,3.97
2023-04-23T12:52:02.430Z,3.90
2023-04-23T12:54:36.684Z,3.97
2023-04-23T12:57:06.390Z,3.67
2023-04-23T12:59:34.256Z,3.42
2023-04-23T13:02:02.491Z,3.28
2023-04-23T13:04:31.179Z,5.07
2023-04-23T13:06:57.793Z,4.38
2023-04-23T13:09:27.955Z,4.32
2023-04-23T13:11:55.410Z,4.18
2023-04-23T13:14:22.385Z,3.78
2023-04-23T13:16:49.283Z,3.45
2023-04-23T13:19:17.960Z,3.47
2023-04-23T13:21:45.266Z,3.45
2023-04-23T13:24:11.926Z,2.92
2023-04-23T13:26:40.964Z,3.35
2023-04-23T13:29:08.670Z,3.20
2023-04-23T13:31:38.812Z,4.03
2023-04-23T13:34:05.756Z,3.40
2023-04-23T13:36:32.475Z,3.58
2023-04-23T13:38:59.097Z,3.38
2023-04-23T13:41:25.807Z,3.47
2023-04-23T13:43:52.623Z,3.05
2023-04-23T13:46:22.058Z,3.10
2023-04-23T13:48:49.781Z,2.72
2023-04-23T13:51:33.277Z,3.08
2023-04-23T13:54:04.463Z,3.17
2023-04-23T13:56:31.752Z,2.97
2023-04-23T13:59:18.927Z,3.03
2023-04-23T14:01:50.653Z,2.83
2023-04-23T14:04:18.598Z,3.03
2023-04-23T14:06:53.049Z,3.20
2023-04-23T14:09:20.949Z,2.63
2023-04-23T14:11:50.269Z,3.03
2023-04-23T14:14:17.984Z,2.65
2023-04-23T14:16:44.735Z,2.63
2023-04-23T14:19:15.720Z,2.63
2023-04-23T14:21:42.468Z,2.53
2023-04-23T14:24:33.944Z,2.22
2023-04-23T14:27:05.691Z,3.30
2023-04-23T14:29:51.929Z,2.90
2023-04-23T14:32:18.773Z,2.95
2023-04-23T14:34:50.535Z,2.50
2023-04-23T14:37:17.601Z,2.95
2023-04-23T14:39:44.584Z,2.65
2023-04-23T14:42:11.548Z,2.38
2023-04-23T14:44:38.231Z,3.55
2023-04-23T14:47:07.978Z,3.75
2023-04-23T14:49:34.607Z,4.60
2023-04-23T14:52:05.419Z,5.38
2023-04-23T14:54:32.556Z,4.85
2023-04-23T14:57:02.668Z,4.18
2023-04-23T14:59:29.276Z,3.83
2023-04-23T15:01:56.902Z,4.13
2023-04-23T15:04:24.126Z,5.30
2023-04-23T15:06:50.838Z,4.70
2023-04-23T15:09:17.893Z,4.25
2023-04-23T15:11:50.612Z,3.47
2023-04-23T15:14:25.925Z,2.88
2023-04-23T15:16:54.293Z,2.60
2023-04-23T15:19:21.000Z,2.00
2023-04-23T15:21:48.226Z,1.83
2023-04-23T15:24:19.610Z,1.95
2023-04-23T15:26:46.284Z,1.70
2023-04-23T15:29:24.322Z,1.65
2023-04-23T15:31:52.987Z,1.42
2023-04-23T15:34:19.782Z,1.55
2023-04-23T15:36:46.724Z,1.30
2023-04-23T15:39:13.966Z,1.17
2023-04-23T15:41:41.886Z,0.80
2023-04-23T15:44:10.995Z,0.70
2023-04-23T15:46:37.703Z,1.27
2023-04-23T15:49:05.524Z,1.05
2023-04-23T15:51:32.861Z,1.00
2023-04-23T15:54:00.788Z,1.05
2023-04-23T15:56:27.371Z,1.00
2023-04-23T15:58:54.016Z,0.90
2023-04-23T16:01:20.613Z,1.08
2023-04-23T16:03:57.966Z,1.10
2023-04-23T16:06:36.584Z,1.30
2023-04-23T16:09:06.592Z,1.73
2023-04-23T16:11:34.198Z,1.63
2023-04-23T16:14:00.851Z,1.85
2023-04-23T16:16:28.952Z,1.15
2023-04-23T16:18:57.133Z,1.80
2023-04-23T16:21:24.473Z,1.02
2023-04-23T16:23:51.289Z,1.23
2023-04-23T16:26:17.891Z,0.90
2023-04-23T16:28:51.993Z,1.50
2023-04-23T16:31:24.569Z,2.03
2023-04-23T16:33:51.211Z,1.10
2023-04-23T16:36:17.965Z,0.88
2023-04-23T16:38:49.230Z,0.80
2023-04-23T16:41:17.570Z,2.00
2023-04-23T16:43:47.473Z,1.90
2023-04-23T16:46:19.842Z,1.02
2023-04-23T16:48:46.702Z,1.15
2023-04-23T16:51:13.603Z,0.95
2023-04-23T16:53:41.917Z,1.02
2023-04-23T16:56:08.586Z,1.40
2023-04-23T16:58:35.951Z,2.10
2023-04-23T17:01:02.549Z,1.95
2023-04-23T17:03:29.618Z,2.38
2023-04-23T17:06:08.598Z,2.80
2023-04-23T17:08:36.800Z,4.38
2023-04-23T17:11:07.333Z,3.67
2023-04-23T17:13:34.749Z,2.45
2023-04-23T17:16:02.277Z,1.90
2023-04-23T17:18:29.498Z,2.22
2023-04-23T17:20:56.227Z,1.73
2023-04-23T17:23:23.731Z,2.22
2023-04-23T17:25:52.968Z,1.83
2023-04-23T17:28:20.836Z,1.75
2023-04-23T17:30:50.710Z,1.88
2023-04-23T17:33:18.548Z,2.03
2023-04-23T17:35:46.730Z,2.22
2023-04-23T17:38:15.065Z,2.75
2023-04-23T17:40:41.817Z,2.75
2023-04-23T17:43:08.758Z,2.20
2023-04-23T17:45:37.295Z,2.03
2023-04-23T17:48:04.635Z,2.35
2023-04-23T17:50:31.316Z,2.45
2023-04-23T17:52:58.272Z,2.40
2023-04-23T17:55:25.828Z,3.20
2023-04-23T17:57:52.688Z,2.75
2023-04-23T18:00:21.564Z,2.17
2023-04-23T18:02:48.594Z,2.40
2023-04-23T18:05:17.724Z,3.10
2023-04-23T18:07:48.218Z,2.40
2023-04-23T18:10:15.058Z,2.90
2023-04-23T18:12:41.717Z,2.25
2023-04-23T18:15:18.183Z,2.22
2023-04-23T18:17:55.753Z,2.60
2023-04-23T18:20:24.914Z,2.40
2023-04-23T18:22:54.318Z,1.98
2023-04-23T18:25:23.109Z,2.13
2023-04-23T18:27:49.757Z,2.85
2023-04-23T18:30:19.665Z,3.55
2023-04-23T18:32:48.684Z,3.65
2023-04-23T18:35:18.436Z,5.03
2023-04-23T18:38:05.902Z,5.38
2023-04-23T18:40:40.319Z,4.88
2023-04-23T18:43:09.690Z,4.45
2023-04-23T18:45:36.326Z,3.85
2023-04-23T18:48:25.315Z,3.95
2023-04-23T18:50:56.146Z,3.45
2023-04-23T18:53:22.801Z,3.55
2023-04-23T18:55:52.751Z,3.72
2023-04-23T18:58:19.629Z,3.28
2023-04-23T19:00:46.499Z,3.50
2023-04-23T19:03:25.434Z,3.60
2023-04-23T19:05:53.696Z,3.90
2023-04-23T19:08:20.621Z,3.15
2023-04-23T19:10:47.326Z,3.42
2023-04-23T19:13:17.674Z,3.40
2023-04-23T19:15:48.471Z,3.58
2023-04-23T19:18:19.860Z,3.65
2023-04-23T19:20:49.034Z,3.38
2023-04-23T19:23:18.620Z,3.58
2023-04-23T19:25:45.822Z,3.50
2023-04-23T19:28:12.502Z,3.28
2023-04-23T19:30:39.666Z,3.72
2023-04-23T19:33:11.453Z,4.00
2023-04-23T19:35:40.021Z,3.95
2023-04-23T19:38:07.250Z,3.97
2023-04-23T19:40:34.148Z,3.63
2023-04-23T19:43:01.311Z,3.58
2023-04-23T19:45:30.085Z,3.55
2023-04-23T19:47:57.499Z,3.85
2023-04-23T19:50:24.949Z,4.30
2023-04-23T19:52:51.944Z,3.72
2023-04-23T19:55:21.184Z,3.63
2023-04-23T19:57:48.045Z,4.18
2023-04-23T20:00:14.834Z,3.53
2023-04-23T20:02:41.825Z,3.15
2023-04-23T20:05:12.189Z,4.53
2023-04-23T20:07:39.940Z,3.63
2023-04-23T20:10:07.459Z,4.10
2023-04-23T20:12:34.710Z,3.40
2023-04-23T20:15:01.777Z,3.38
2023-04-23T20:17:29.920Z,3.10
2023-04-23T20:20:01.550Z,3.30
2023-04-23T20:22:30.043Z,3.63
2023-04-23T20:24:59.586Z,3.63
2023-04-23T20:27:28.890Z,3.60
2023-04-23T20:29:55.789Z,3.25
2023-04-23T20:32:27.101Z,3.50
2023-04-23T20:34:53.881Z,3.65
2023-04-23T20:37:23.260Z,3.50
2023-04-23T20:39:50.045Z,4.07
2023-04-23T20:42:16.912Z,3.60
2023-04-23T20:44:50.842Z,3.05
2023-04-23T20:47:17.660Z,3.35
2023-04-23T20:49:44.438Z,3.10
2023-04-23T20:52:13.592Z,3.58
2023-04-23T20:54:40.650Z,3.33
2023-04-23T20:57:07.364Z,3.40
2023-04-23T20:59:34.262Z,3.58
2023-04-23T21:02:00.871Z,3.53
2023-04-23T21:04:27.526Z,3.55
2023-04-23T21:06:54.180Z,4.00
2023-04-23T21:09:21.152Z,3.33
2023-04-23T21:11:48.081Z,3.63
2023-04-23T21:14:14.984Z,3.10
2023-04-23T21:16:41.841Z,3.58
2023-04-23T21:19:08.469Z,3.67
2023-04-23T21:21:35.183Z,3.15
2023-04-23T21:24:01.892Z,3.42
2023-04-23T21:26:30.758Z,4.15
2023-04-23T21:28:57.846Z,3.40
2023-04-23T21:31:43.085Z,3.30
2023-04-23T21:34:09.794Z,3.60
2023-04-23T21:36:36.587Z,3.70
2023-04-23T21:39:03.303Z,3.72
2023-04-23T21:41:30.262Z,3.50
2023-04-23T21:43:59.894Z,3.13
2023-04-23T21:46:26.850Z,3.53
2023-04-23T21:48:53.832Z,3.45
2023-04-23T21:51:22.755Z,3.22
2023-04-23T21:53:49.713Z,3.75
2023-04-23T21:56:17.611Z,3.33
2023-04-23T21:58:44.820Z,3.70
2023-04-23T22:01:11.628Z,3.95
2023-04-23T22:03:42.529Z,3.63
2023-04-23T22:06:09.771Z,3.47
2023-04-23T22:08:40.556Z,3.50
2023-04-23T22:11:08.187Z,4.18
2023-04-23T22:13:36.077Z,3.63
2023-04-23T22:16:06.574Z,3.38
2023-04-23T22:18:38.284Z,3.65
2023-04-23T22:21:05.149Z,3.70
2023-04-23T22:23:32.052Z,3.20
2023-04-23T22:25:58.939Z,3.47
2023-04-23T22:28:25.761Z,3.30
2023-04-23T22:30:52.366Z,3.90
2023-04-23T22:33:19.038Z,3.45
2023-04-23T22:35:45.703Z,3.42
2023-04-23T22:38:12.534Z,3.65
2023-04-23T22:40:39.258Z,3.65
2023-04-23T22:43:06.406Z,3.78
2023-04-23T22:45:33.244Z,3.97
2023-04-23T22:48:00.232Z,3.67
2023-04-23T22:50:26.932Z,3.42
2023-04-23T22:52:53.625Z,3.45
2023-04-23T22:55:20.378Z,3.47
2023-04-23T22:57:47.074Z,3.30
2023-04-23T23:00:14.831Z,3.80
2023-04-23T23:02:41.486Z,3.72
2023-04-23T23:05:09.494Z,4.05
2023-04-23T23:07:36.113Z,3.33
2023-04-23T23:10:03.665Z,3.60
2023-04-23T23:12:30.345Z,3.53
2023-04-23T23:14:56.925Z,3.97
2023-04-23T23:17:23.679Z,3.78
2023-04-23T23:19:50.669Z,3.50
2023-04-23T23:22:17.248Z,3.80
2023-04-23T23:24:43.849Z,3.65
2023-04-23T23:27:10.598Z,4.13
2023-04-23T23:29:37.296Z,3.78
2023-04-23T23:32:04.076Z,3.75
2023-04-23T23:34:30.703Z,3.97
2023-04-23T23:36:58.792Z,3.92
2023-04-23T23:39:25.369Z,4.25
2023-04-23T23:41:51.979Z,4.03
2023-04-23T23:44:18.612Z,3.80
2023-04-23T23:46:45.346Z,3.90
2023-04-23T23:49:12.393Z,3.90
2023-04-23T23:51:39.173Z,4.25
2023-04-23T23:54:06.160Z,4.13
2023-04-23T23:56:32.794Z,4.50
2023-04-23T23:58:59.430Z,4.30
